sensor_id;sensor_type;location;lat;lon;timestamp;pressure;altitude;pressure_sealevel;temperature;humidity
14882;BME280;7533;51.278;12.588;2023-07-09T00:03:29;100469.91;;;31.42;49.51
14882;BME280;7533;51.278;12.588;2023-07-09T00:08:33;100474.88;;;31.39;49.32
14882;BME280;7533;51.278;12.588;2023-07-09T00:13:36;100464.75;;;31.31;49.37
14882;BME280;7533;51.278;12.588;2023-07-09T00:18:39;100481.50;;;31.28;49.35
14882;BME280;7533;51.278;12.588;2023-07-09T00:23:43;100474.47;;;31.25;49.39
14882;BME280;7533;51.278;12.588;2023-07-09T00:28:46;100482.31;;;31.20;49.74
14882;BME280;7533;51.278;12.588;2023-07-09T00:33:49;100486.22;;;31.18;49.54
14882;BME280;7533;51.278;12.588;2023-07-09T00:38:53;100477.34;;;31.16;49.77
14882;BME280;7533;51.278;12.588;2023-07-09T00:43:56;100467.56;;;31.13;49.68
14882;BME280;7533;51.278;12.588;2023-07-09T00:49:02;100472.00;;;31.06;49.80
14882;BME280;7533;51.278;12.588;2023-07-09T00:54:13;100459.53;;;31.03;49.67
14882;BME280;7533;51.278;12.588;2023-07-09T00:59:20;100460.69;;;31.01;49.30
14882;BME280;7533;51.278;12.588;2023-07-09T01:04:24;100462.59;;;31.00;49.39
14882;BME280;7533;51.278;12.588;2023-07-09T01:09:29;100464.59;;;30.90;49.47
14882;BME280;7533;51.278;12.588;2023-07-09T01:14:32;100464.22;;;30.85;49.23
14882;BME280;7533;51.278;12.588;2023-07-09T01:19:40;100458.38;;;30.80;49.51
14882;BME280;7533;51.278;12.588;2023-07-09T01:24:54;100461.25;;;30.70;49.63
14882;BME280;7533;51.278;12.588;2023-07-09T01:29:57;100459.94;;;30.56;50.15
14882;BME280;7533;51.278;12.588;2023-07-09T01:35:03;100459.28;;;30.63;50.14
14882;BME280;7533;51.278;12.588;2023-07-09T01:40:11;100453.44;;;30.58;49.91
14882;BME280;7533;51.278;12.588;2023-07-09T01:45:31;100451.38;;;30.51;49.95
14882;BME280;7533;51.278;12.588;2023-07-09T01:50:35;100459.56;;;30.51;50.13
14882;BME280;7533;51.278;12.588;2023-07-09T01:55:44;100465.66;;;30.45;49.77
14882;BME280;7533;51.278;12.588;2023-07-09T02:00:47;100462.44;;;30.42;50.29
14882;BME280;7533;51.278;12.588;2023-07-09T02:05:52;100454.16;;;30.34;50.25
14882;BME280;7533;51.278;12.588;2023-07-09T02:10:57;100452.75;;;30.29;50.28
14882;BME280;7533;51.278;12.588;2023-07-09T02:16:00;100460.75;;;30.23;50.95
14882;BME280;7533;51.278;12.588;2023-07-09T02:21:04;100457.50;;;30.19;51.24
14882;BME280;7533;51.278;12.588;2023-07-09T02:26:08;100470.97;;;30.21;51.16
14882;BME280;7533;51.278;12.588;2023-07-09T02:31:11;100465.59;;;30.11;51.63
14882;BME280;7533;51.278;12.588;2023-07-09T02:36:14;100475.72;;;30.19;51.29
14882;BME280;7533;51.278;12.588;2023-07-09T02:41:18;100466.50;;;30.02;52.16
14882;BME280;7533;51.278;12.588;2023-07-09T02:46:21;100475.97;;;29.90;52.03
14882;BME280;7533;51.278;12.588;2023-07-09T02:51:24;100482.22;;;29.82;52.39
14882;BME280;7533;51.278;12.588;2023-07-09T02:56:30;100476.94;;;29.81;52.60
14882;BME280;7533;51.278;12.588;2023-07-09T03:01:33;100474.34;;;29.79;53.00
14882;BME280;7533;51.278;12.588;2023-07-09T03:06:37;100478.41;;;29.75;52.68
14882;BME280;7533;51.278;12.588;2023-07-09T03:11:42;100479.91;;;29.69;53.37
14882;BME280;7533;51.278;12.588;2023-07-09T03:16:45;100489.22;;;29.67;53.37
14882;BME280;7533;51.278;12.588;2023-07-09T03:21:48;100496.72;;;29.65;53.33
14882;BME280;7533;51.278;12.588;2023-07-09T03:26:52;100500.59;;;29.62;53.69
14882;BME280;7533;51.278;12.588;2023-07-09T03:31:55;100507.06;;;29.61;53.35
14882;BME280;7533;51.278;12.588;2023-07-09T03:36:58;100505.53;;;29.59;53.40
14882;BME280;7533;51.278;12.588;2023-07-09T03:42:02;100509.72;;;29.53;53.83
14882;BME280;7533;51.278;12.588;2023-07-09T03:47:06;100503.69;;;29.49;53.52
14882;BME280;7533;51.278;12.588;2023-07-09T03:52:09;100509.47;;;29.46;53.86
14882;BME280;7533;51.278;12.588;2023-07-09T03:57:13;100509.59;;;29.45;54.07
14882;BME280;7533;51.278;12.588;2023-07-09T04:02:15;100510.03;;;29.40;53.81
14882;BME280;7533;51.278;12.588;2023-07-09T04:07:18;100498.59;;;29.37;54.13
14882;BME280;7533;51.278;12.588;2023-07-09T04:12:23;100497.03;;;29.34;54.28
14882;BME280;7533;51.278;12.588;2023-07-09T04:17:26;100495.31;;;29.33;54.45
14882;BME280;7533;51.278;12.588;2023-07-09T04:22:29;100502.97;;;29.30;54.55
14882;BME280;7533;51.278;12.588;2023-07-09T04:27:33;100503.09;;;29.28;54.36
14882;BME280;7533;51.278;12.588;2023-07-09T04:32:36;100512.28;;;29.27;54.48
14882;BME280;7533;51.278;12.588;2023-07-09T04:37:40;100508.88;;;29.25;54.62
14882;BME280;7533;51.278;12.588;2023-07-09T04:42:44;100504.44;;;29.24;55.03
14882;BME280;7533;51.278;12.588;2023-07-09T04:47:47;100510.84;;;29.23;54.82
14882;BME280;7533;51.278;12.588;2023-07-09T04:52:50;100506.59;;;29.20;54.78
14882;BME280;7533;51.278;12.588;2023-07-09T04:57:55;100525.41;;;29.14;53.76
14882;BME280;7533;51.278;12.588;2023-07-09T05:02:58;100531.16;;;29.11;50.22
14882;BME280;7533;51.278;12.588;2023-07-09T05:08:00;100525.34;;;28.96;50.68
14882;BME280;7533;51.278;12.588;2023-07-09T05:13:05;100525.28;;;29.06;50.78
14882;BME280;7533;51.278;12.588;2023-07-09T05:18:09;100520.00;;;29.04;50.45
14882;BME280;7533;51.278;12.588;2023-07-09T05:23:13;100518.91;;;28.97;50.59
14882;BME280;7533;51.278;12.588;2023-07-09T05:28:17;100526.84;;;28.71;49.30
14882;BME280;7533;51.278;12.588;2023-07-09T05:33:20;100548.94;;;28.58;49.99
14882;BME280;7533;51.278;12.588;2023-07-09T05:38:23;100540.88;;;28.66;50.95
14882;BME280;7533;51.278;12.588;2023-07-09T05:43:27;100538.31;;;28.75;49.80
14882;BME280;7533;51.278;12.588;2023-07-09T05:48:30;100548.94;;;28.58;50.04
14882;BME280;7533;51.278;12.588;2023-07-09T05:53:33;100547.19;;;28.67;49.78
14882;BME280;7533;51.278;12.588;2023-07-09T05:58:37;100559.25;;;28.55;50.62
14882;BME280;7533;51.278;12.588;2023-07-09T06:03:40;100555.69;;;28.54;50.38
14882;BME280;7533;51.278;12.588;2023-07-09T06:08:44;100554.38;;;28.68;50.32
14882;BME280;7533;51.278;12.588;2023-07-09T06:13:49;100552.09;;;28.63;50.67
14882;BME280;7533;51.278;12.588;2023-07-09T06:18:53;100547.91;;;28.69;51.00
14882;BME280;7533;51.278;12.588;2023-07-09T06:23:56;100551.66;;;28.68;50.44
14882;BME280;7533;51.278;12.588;2023-07-09T06:29:00;100552.78;;;28.65;50.63
14882;BME280;7533;51.278;12.588;2023-07-09T06:34:03;100556.69;;;28.53;50.18
14882;BME280;7533;51.278;12.588;2023-07-09T06:39:08;100557.53;;;28.63;50.39
14882;BME280;7533;51.278;12.588;2023-07-09T06:44:12;100560.09;;;28.75;51.11
14882;BME280;7533;51.278;12.588;2023-07-09T06:49:15;100565.28;;;28.68;50.95
14882;BME280;7533;51.278;12.588;2023-07-09T06:54:19;100570.00;;;28.66;50.75
14882;BME280;7533;51.278;12.588;2023-07-09T06:59:23;100567.00;;;28.69;50.83
14882;BME280;7533;51.278;12.588;2023-07-09T07:04:26;100576.44;;;28.65;49.58
14882;BME280;7533;51.278;12.588;2023-07-09T07:09:29;100566.16;;;28.59;50.85
14882;BME280;7533;51.278;12.588;2023-07-09T07:14:33;100561.72;;;28.58;49.38
14882;BME280;7533;51.278;12.588;2023-07-09T07:19:36;100564.72;;;28.55;51.14
14882;BME280;7533;51.278;12.588;2023-07-09T07:24:39;100555.38;;;28.67;51.84
14882;BME280;7533;51.278;12.588;2023-07-09T07:29:44;100553.66;;;28.66;52.40
14882;BME280;7533;51.278;12.588;2023-07-09T07:34:47;100556.53;;;28.74;50.86
14882;BME280;7533;51.278;12.588;2023-07-09T07:39:50;100557.19;;;28.86;51.57
14882;BME280;7533;51.278;12.588;2023-07-09T07:44:54;100567.84;;;28.79;51.17
14882;BME280;7533;51.278;12.588;2023-07-09T07:49:57;100564.22;;;28.79;51.92
14882;BME280;7533;51.278;12.588;2023-07-09T07:55:00;100556.88;;;28.89;52.00
14882;BME280;7533;51.278;12.588;2023-07-09T08:00:07;100554.47;;;28.86;52.05
14882;BME280;7533;51.278;12.588;2023-07-09T08:05:13;100549.75;;;28.78;52.32
14882;BME280;7533;51.278;12.588;2023-07-09T08:10:16;100553.03;;;28.91;51.83
14882;BME280;7533;51.278;12.588;2023-07-09T08:15:21;100550.88;;;28.95;51.37
14882;BME280;7533;51.278;12.588;2023-07-09T08:20:24;100543.56;;;28.95;50.95
14882;BME280;7533;51.278;12.588;2023-07-09T08:25:34;100545.72;;;29.02;50.57
14882;BME280;7533;51.278;12.588;2023-07-09T08:30:45;100535.66;;;29.02;50.77
14882;BME280;7533;51.278;12.588;2023-07-09T08:35:49;100542.78;;;29.13;50.13
14882;BME280;7533;51.278;12.588;2023-07-09T08:40:57;100544.09;;;29.09;50.55
14882;BME280;7533;51.278;12.588;2023-07-09T08:46:09;100544.78;;;29.11;50.63
14882;BME280;7533;51.278;12.588;2023-07-09T08:51:16;100534.91;;;29.10;50.22
14882;BME280;7533;51.278;12.588;2023-07-09T08:56:20;100527.47;;;29.02;50.43
14882;BME280;7533;51.278;12.588;2023-07-09T09:01:28;100528.16;;;29.14;49.62
14882;BME280;7533;51.278;12.588;2023-07-09T09:06:35;100538.59;;;29.18;49.59
14882;BME280;7533;51.278;12.588;2023-07-09T09:11:43;100535.72;;;29.20;49.50
14882;BME280;7533;51.278;12.588;2023-07-09T09:16:49;100532.25;;;29.18;49.53
14882;BME280;7533;51.278;12.588;2023-07-09T09:21:57;100535.91;;;29.09;49.00
14882;BME280;7533;51.278;12.588;2023-07-09T09:27:08;100527.91;;;29.07;49.07
14882;BME280;7533;51.278;12.588;2023-07-09T09:32:21;100527.97;;;29.15;49.14
14882;BME280;7533;51.278;12.588;2023-07-09T09:37:27;100527.94;;;29.25;49.48
14882;BME280;7533;51.278;12.588;2023-07-09T09:42:31;100523.63;;;29.22;49.39
14882;BME280;7533;51.278;12.588;2023-07-09T09:47:36;100516.88;;;29.27;49.87
14882;BME280;7533;51.278;12.588;2023-07-09T09:52:39;100520.47;;;29.27;49.77
14882;BME280;7533;51.278;12.588;2023-07-09T09:57:47;100522.03;;;29.30;49.96
14882;BME280;7533;51.278;12.588;2023-07-09T10:02:57;100523.59;;;29.32;50.58
14882;BME280;7533;51.278;12.588;2023-07-09T10:08:07;100517.84;;;29.35;50.94
14882;BME280;7533;51.278;12.588;2023-07-09T10:13:18;100517.84;;;29.35;50.79
14882;BME280;7533;51.278;12.588;2023-07-09T10:18:36;100515.50;;;29.40;51.57
14882;BME280;7533;51.278;12.588;2023-07-09T10:23:50;100500.16;;;29.39;51.58
14882;BME280;7533;51.278;12.588;2023-07-09T10:29:24;100514.19;;;29.44;51.81
14882;BME280;7533;51.278;12.588;2023-07-09T10:34:47;100506.56;;;29.48;51.68
14882;BME280;7533;51.278;12.588;2023-07-09T10:39:56;100511.16;;;29.47;51.96
14882;BME280;7533;51.278;12.588;2023-07-09T10:45:10;100509.47;;;29.46;52.32
14882;BME280;7533;51.278;12.588;2023-07-09T10:50:23;100505.97;;;29.54;52.76
14882;BME280;7533;51.278;12.588;2023-07-09T10:55:34;100494.22;;;29.54;52.64
14882;BME280;7533;51.278;12.588;2023-07-09T11:00:40;100483.69;;;29.59;52.74
14882;BME280;7533;51.278;12.588;2023-07-09T11:05:46;100494.16;;;29.63;52.59
14882;BME280;7533;51.278;12.588;2023-07-09T11:10:54;100487.34;;;29.67;52.63
14882;BME280;7533;51.278;12.588;2023-07-09T11:16:00;100489.38;;;29.65;52.79
14882;BME280;7533;51.278;12.588;2023-07-09T11:21:13;100485.47;;;29.68;53.05
14882;BME280;7533;51.278;12.588;2023-07-09T11:26:23;100474.50;;;29.60;52.95
14882;BME280;7533;51.278;12.588;2023-07-09T11:31:34;100476.78;;;29.64;53.12
14882;BME280;7533;51.278;12.588;2023-07-09T11:36:49;100478.25;;;29.59;53.18
14882;BME280;7533;51.278;12.588;2023-07-09T11:41:53;100468.41;;;29.66;53.13
14882;BME280;7533;51.278;12.588;2023-07-09T11:47:19;100469.03;;;29.60;53.13
14882;BME280;7533;51.278;12.588;2023-07-09T11:52:28;100464.22;;;29.71;52.77
14882;BME280;7533;51.278;12.588;2023-07-09T11:57:33;100460.16;;;29.75;52.85
14882;BME280;7533;51.278;12.588;2023-07-09T12:02:36;100455.72;;;29.74;53.34
14882;BME280;7533;51.278;12.588;2023-07-09T12:07:40;100448.13;;;29.68;53.67
14882;BME280;7533;51.278;12.588;2023-07-09T12:12:43;100443.63;;;29.77;53.56
14882;BME280;7533;51.278;12.588;2023-07-09T12:17:54;100444.88;;;29.83;53.45
14882;BME280;7533;51.278;12.588;2023-07-09T12:23:00;100443.38;;;29.88;53.43
14882;BME280;7533;51.278;12.588;2023-07-09T12:28:03;100436.69;;;29.83;53.15
14882;BME280;7533;51.278;12.588;2023-07-09T12:33:07;100431.22;;;29.83;53.58
14882;BME280;7533;51.278;12.588;2023-07-09T12:38:17;100420.88;;;29.86;53.17
14882;BME280;7533;51.278;12.588;2023-07-09T12:43:25;100422.41;;;29.89;53.26
14882;BME280;7533;51.278;12.588;2023-07-09T12:48:29;100415.94;;;29.90;53.35
14882;BME280;7533;51.278;12.588;2023-07-09T12:53:36;100411.50;;;29.89;53.56
14882;BME280;7533;51.278;12.588;2023-07-09T12:58:39;100402.34;;;29.98;53.43
14882;BME280;7533;51.278;12.588;2023-07-09T13:03:53;100406.47;;;30.02;53.67
14882;BME280;7533;51.278;12.588;2023-07-09T13:08:59;100405.31;;;30.04;53.51
14882;BME280;7533;51.278;12.588;2023-07-09T13:14:05;100403.91;;;30.00;53.64
14882;BME280;7533;51.278;12.588;2023-07-09T13:19:08;100407.56;;;30.09;53.80
14882;BME280;7533;51.278;12.588;2023-07-09T13:24:17;100405.25;;;30.14;53.89
14882;BME280;7533;51.278;12.588;2023-07-09T13:29:21;100407.81;;;30.16;53.95
14882;BME280;7533;51.278;12.588;2023-07-09T13:34:28;100405.75;;;30.18;53.66
14882;BME280;7533;51.278;12.588;2023-07-09T13:39:36;100391.63;;;30.22;54.08
14882;BME280;7533;51.278;12.588;2023-07-09T13:44:42;100392.47;;;30.23;53.66
14882;BME280;7533;51.278;12.588;2023-07-09T13:49:46;100392.47;;;30.23;53.63
14882;BME280;7533;51.278;12.588;2023-07-09T13:54:51;100390.47;;;30.25;53.61
14882;BME280;7533;51.278;12.588;2023-07-09T13:59:55;100393.50;;;30.22;54.10
14882;BME280;7533;51.278;12.588;2023-07-09T14:05:00;100377.81;;;30.24;53.99
14882;BME280;7533;51.278;12.588;2023-07-09T14:10:07;100376.84;;;30.33;53.98
14882;BME280;7533;51.278;12.588;2023-07-09T14:15:14;100377.53;;;30.35;53.64
14882;BME280;7533;51.278;12.588;2023-07-09T14:20:17;100379.28;;;30.36;53.93
14882;BME280;7533;51.278;12.588;2023-07-09T14:25:25;100373.63;;;30.38;53.91
14882;BME280;7533;51.278;12.588;2023-07-09T14:30:29;100374.31;;;30.40;53.88
14882;BME280;7533;51.278;12.588;2023-07-09T14:35:32;100356.22;;;30.39;53.75
14882;BME280;7533;51.278;12.588;2023-07-09T14:40:36;100354.72;;;30.44;54.08
14882;BME280;7533;51.278;12.588;2023-07-09T14:45:39;100354.03;;;30.42;53.79
14882;BME280;7533;51.278;12.588;2023-07-09T14:50:43;100349.94;;;30.46;54.13
14882;BME280;7533;51.278;12.588;2023-07-09T14:55:51;100339.53;;;30.50;53.85
14882;BME280;7533;51.278;12.588;2023-07-09T15:00:55;100331.16;;;30.51;53.73
14882;BME280;7533;51.278;12.588;2023-07-09T15:05:58;100325.53;;;30.45;54.25
14882;BME280;7533;51.278;12.588;2023-07-09T15:11:05;100314.78;;;30.51;53.90
14882;BME280;7533;51.278;12.588;2023-07-09T15:16:09;100309.66;;;30.48;54.27
14882;BME280;7533;51.278;12.588;2023-07-09T15:21:12;100305.91;;;30.49;54.20
14882;BME280;7533;51.278;12.588;2023-07-09T15:26:18;100301.13;;;30.51;54.17
14882;BME280;7533;51.278;12.588;2023-07-09T15:31:21;100295.66;;;30.51;54.22
14882;BME280;7533;51.278;12.588;2023-07-09T15:36:25;100297.72;;;30.49;54.42
14882;BME280;7533;51.278;12.588;2023-07-09T15:41:29;100290.91;;;30.53;54.39
14882;BME280;7533;51.278;12.588;2023-07-09T15:46:33;100291.59;;;30.55;54.51
14882;BME280;7533;51.278;12.588;2023-07-09T15:51:36;100284.06;;;30.49;54.78
14882;BME280;7533;51.278;12.588;2023-07-09T15:56:40;100276.94;;;30.65;54.39
14882;BME280;7533;51.278;12.588;2023-07-09T16:01:44;100284.41;;;30.54;54.77
14882;BME280;7533;51.278;12.588;2023-07-09T16:06:46;100275.75;;;30.67;54.63
14882;BME280;7533;51.278;12.588;2023-07-09T16:11:52;100263.66;;;30.78;54.30
14882;BME280;7533;51.278;12.588;2023-07-09T16:16:57;100254.47;;;30.95;53.98
14882;BME280;7533;51.278;12.588;2023-07-09T16:22:04;100253.94;;;30.92;54.11
14882;BME280;7533;51.278;12.588;2023-07-09T16:27:15;100250.19;;;31.01;53.93
14882;BME280;7533;51.278;12.588;2023-07-09T16:32:18;100236.03;;;31.05;53.93
14882;BME280;7533;51.278;12.588;2023-07-09T16:37:22;100232.94;;;31.08;53.84
14882;BME280;7533;51.278;12.588;2023-07-09T16:42:28;100235.84;;;31.23;53.67
14882;BME280;7533;51.278;12.588;2023-07-09T16:47:31;100235.38;;;31.28;53.73
14882;BME280;7533;51.278;12.588;2023-07-09T16:52:34;100242.38;;;31.39;53.58
14882;BME280;7533;51.278;12.588;2023-07-09T16:57:39;100238.78;;;31.38;53.47
14882;BME280;7533;51.278;12.588;2023-07-09T17:02:42;100233.28;;;31.46;53.46
14882;BME280;7533;51.278;12.588;2023-07-09T17:07:45;100239.44;;;31.56;53.24
14882;BME280;7533;51.278;12.588;2023-07-09T17:12:54;100244.91;;;31.56;53.09
14882;BME280;7533;51.278;12.588;2023-07-09T17:17:58;100244.41;;;31.45;53.39
14882;BME280;7533;51.278;12.588;2023-07-09T17:23:02;100252.25;;;31.48;53.40
14882;BME280;7533;51.278;12.588;2023-07-09T17:28:14;100255.69;;;31.50;53.48
14882;BME280;7533;51.278;12.588;2023-07-09T17:33:18;100262.50;;;31.54;53.57
14882;BME280;7533;51.278;12.588;2023-07-09T17:38:24;100266.78;;;31.48;53.42
14882;BME280;7533;51.278;12.588;2023-07-09T17:43:29;100278.94;;;31.46;53.29
14882;BME280;7533;51.278;12.588;2023-07-09T17:48:33;100278.75;;;31.47;53.64
14882;BME280;7533;51.278;12.588;2023-07-09T17:53:38;100285.09;;;31.40;53.82
14882;BME280;7533;51.278;12.588;2023-07-09T17:58:42;100288.66;;;31.48;53.68
14882;BME280;7533;51.278;12.588;2023-07-09T18:03:45;100282.03;;;31.51;53.50
14882;BME280;7533;51.278;12.588;2023-07-09T18:08:48;100281.66;;;31.54;53.59
14882;BME280;7533;51.278;12.588;2023-07-09T18:13:53;100275.00;;;31.56;53.52
14882;BME280;7533;51.278;12.588;2023-07-09T18:18:56;100273.97;;;31.57;53.49
14882;BME280;7533;51.278;12.588;2023-07-09T18:24:05;100270.19;;;31.58;53.49
14882;BME280;7533;51.278;12.588;2023-07-09T18:29:23;100264.72;;;31.58;54.14
14882;BME280;7533;51.278;12.588;2023-07-09T18:34:27;100258.56;;;31.65;54.43
14882;BME280;7533;51.278;12.588;2023-07-09T18:39:30;100264.56;;;31.68;54.74
14882;BME280;7533;51.278;12.588;2023-07-09T18:44:34;100254.50;;;31.60;55.12
14882;BME280;7533;51.278;12.588;2023-07-09T18:49:38;100246.75;;;31.64;54.95
14882;BME280;7533;51.278;12.588;2023-07-09T18:54:41;100256.66;;;31.65;54.98
14882;BME280;7533;51.278;12.588;2023-07-09T18:59:46;100256.00;;;31.63;55.07
14882;BME280;7533;51.278;12.588;2023-07-09T19:04:50;100254.13;;;31.64;54.97
14882;BME280;7533;51.278;12.588;2023-07-09T19:09:54;100261.66;;;31.53;55.41
14882;BME280;7533;51.278;12.588;2023-07-09T19:14:58;100257.56;;;31.57;55.36
14882;BME280;7533;51.278;12.588;2023-07-09T19:20:01;100255.00;;;31.48;55.46
14882;BME280;7533;51.278;12.588;2023-07-09T19:25:12;100250.69;;;31.70;55.03
14882;BME280;7533;51.278;12.588;2023-07-09T19:30:20;100252.56;;;31.69;55.21
14882;BME280;7533;51.278;12.588;2023-07-09T19:35:25;100252.72;;;31.76;55.01
14882;BME280;7533;51.278;12.588;2023-07-09T19:40:28;100243.66;;;31.75;54.85
14882;BME280;7533;51.278;12.588;2023-07-09T19:45:36;100251.19;;;31.73;54.92
14882;BME280;7533;51.278;12.588;2023-07-09T19:50:40;100252.59;;;31.61;55.21
14882;BME280;7533;51.278;12.588;2023-07-09T19:55:45;100259.44;;;31.57;55.26
14882;BME280;7533;51.278;12.588;2023-07-09T20:00:51;100256.84;;;31.64;55.11
14882;BME280;7533;51.278;12.588;2023-07-09T20:05:56;100253.94;;;31.73;54.99
14882;BME280;7533;51.278;12.588;2023-07-09T20:11:01;100263.50;;;31.77;55.07
14882;BME280;7533;51.278;12.588;2023-07-09T20:16:19;100264.19;;;31.79;55.06
14882;BME280;7533;51.278;12.588;2023-07-09T20:21:26;100264.38;;;31.78;54.90
14882;BME280;7533;51.278;12.588;2023-07-09T20:26:29;100272.25;;;31.73;54.90
14882;BME280;7533;51.278;12.588;2023-07-09T20:31:33;100270.34;;;31.73;54.86
14882;BME280;7533;51.278;12.588;2023-07-09T20:36:37;100271.38;;;31.72;54.88
14882;BME280;7533;51.278;12.588;2023-07-09T20:41:40;100271.72;;;31.69;54.73
14882;BME280;7533;51.278;12.588;2023-07-09T20:46:53;100279.75;;;31.79;54.32
14882;BME280;7533;51.278;12.588;2023-07-09T20:52:09;100280.44;;;31.73;54.59
14882;BME280;7533;51.278;12.588;2023-07-09T20:57:14;100280.44;;;31.73;54.58
14882;BME280;7533;51.278;12.588;2023-07-09T21:02:22;100277.38;;;31.84;54.04
14882;BME280;7533;51.278;12.588;2023-07-09T21:07:26;100273.28;;;31.80;54.01
14882;BME280;7533;51.278;12.588;2023-07-09T21:12:29;100283.84;;;31.91;53.90
14882;BME280;7533;51.278;12.588;2023-07-09T21:17:34;100280.31;;;31.82;53.78
14882;BME280;7533;51.278;12.588;2023-07-09T21:22:37;100292.44;;;31.80;53.38
14882;BME280;7533;51.278;12.588;2023-07-09T21:27:39;100288.66;;;31.89;53.17
14882;BME280;7533;51.278;12.588;2023-07-09T21:32:44;100298.44;;;31.83;53.25
14882;BME280;7533;51.278;12.588;2023-07-09T21:37:48;100289.19;;;31.84;53.39
14882;BME280;7533;51.278;12.588;2023-07-09T21:42:51;100283.19;;;31.89;52.94
14882;BME280;7533;51.278;12.588;2023-07-09T21:47:57;100276.34;;;31.85;52.93
14882;BME280;7533;51.278;12.588;2023-07-09T21:53:00;100279.75;;;31.87;52.88
14882;BME280;7533;51.278;12.588;2023-07-09T21:58:03;100279.75;;;31.87;52.60
14882;BME280;7533;51.278;12.588;2023-07-09T22:03:11;100277.56;;;31.82;52.62
14882;BME280;7533;51.278;12.588;2023-07-09T22:08:18;100274.81;;;31.82;52.22
14882;BME280;7533;51.278;12.588;2023-07-09T22:13:21;100279.75;;;31.79;52.29
14882;BME280;7533;51.278;12.588;2023-07-09T22:18:25;100276.00;;;31.72;52.08
14882;BME280;7533;51.278;12.588;2023-07-09T22:23:28;100271.91;;;31.68;52.40
14882;BME280;7533;51.278;12.588;2023-07-09T22:28:31;100271.38;;;31.72;52.17
14882;BME280;7533;51.278;12.588;2023-07-09T22:33:35;100278.06;;;31.70;52.11
14882;BME280;7533;51.278;12.588;2023-07-09T22:38:38;100277.56;;;31.66;52.15
14882;BME280;7533;51.278;12.588;2023-07-09T22:43:41;100274.13;;;31.64;52.13
14882;BME280;7533;51.278;12.588;2023-07-09T22:48:45;100268.50;;;31.57;52.13
14882;BME280;7533;51.278;12.588;2023-07-09T22:53:48;100267.66;;;31.57;52.17
14882;BME280;7533;51.278;12.588;2023-07-09T22:58:51;100262.03;;;31.50;52.48
14882;BME280;7533;51.278;12.588;2023-07-09T23:03:55;100262.50;;;31.54;52.15
14882;BME280;7533;51.278;12.588;2023-07-09T23:08:59;100263.72;;;31.51;52.46
14882;BME280;7533;51.278;12.588;2023-07-09T23:14:02;100253.66;;;31.44;52.65
14882;BME280;7533;51.278;12.588;2023-07-09T23:19:20;100253.31;;;31.39;52.51
14882;BME280;7533;51.278;12.588;2023-07-09T23:24:24;100256.53;;;31.42;52.49
14882;BME280;7533;51.278;12.588;2023-07-09T23:29:27;100248.50;;;31.41;52.80
14882;BME280;7533;51.278;12.588;2023-07-09T23:34:32;100248.50;;;31.41;52.33
14882;BME280;7533;51.278;12.588;2023-07-09T23:39:34;100244.94;;;31.32;52.40
14882;BME280;7533;51.278;12.588;2023-07-09T23:44:37;100231.28;;;31.32;52.47
14882;BME280;7533;51.278;12.588;2023-07-09T23:49:41;100244.59;;;31.27;52.64
14882;BME280;7533;51.278;12.588;2023-07-09T23:54:44;100274.50;;;31.20;53.00
14882;BME280;7533;51.278;12.588;2023-07-09T23:59:48;100368.63;;;31.18;52.51
